| time (UTC) | temp F | wind direction | speed MPH | gust MPH | rain 1hr in | rain 24hr in | rain mn in | humidity % | barometer mb |
| 20260507080005 | 54 | 197 | 1.0 | 2.0 | 0.00 | 0.00 | 0.00 | 79 | 1011.0 |
| 20260507075005 | 52 | 196 | 0.0 | 3.0 | 0.00 | 0.00 | 0.00 | 86 | 1011.1 |
| 20260507074004 | 51 | 196 | 2.0 | 3.0 | 0.00 | 0.00 | 0.00 | 88 | 1011.3 |
| 20260507073004 | 50 | 108 | 1.0 | 2.0 | 0.00 | 0.00 | 0.00 | 90 | 1011.3 |
| 20260507072005 | 49 | 107 | 0.0 | 1.0 | 0.00 | 0.00 | 0.00 | 90 | 1011.4 |
| 20260507065004 | 47 | 107 | 0.0 | 1.0 | 0.00 | 0.00 | 0.00 | 95 | 1011.4 |
| 20260507064004 | 45 | 108 | 0.0 | 0.0 | 0.00 | 0.00 | 0.00 | 94 | 1011.4 |
| 20260507063005 | 45 | 108 | 0.0 | 2.0 | 0.00 | 0.00 | 0.00 | 93 | 1011.5 |
| 20260507062005 | 46 | 108 | 1.0 | 3.0 | 0.00 | 0.00 | 0.00 | 92 | 1011.4 |
| 20260507060005 | 46 | 69 | 0.0 | 0.0 | 0.00 | 0.00 | 0.00 | 93 | 1011.3 |
| 20260507055005 | 46 | 69 | 0.0 | 0.0 | 0.00 | 0.00 | 0.00 | 93 | 1011.3 |
| 20260507053005 | 46 | 69 | 0.0 | 2.0 | 0.00 | 0.00 | 0.00 | 93 | 1011.3 |
| 20260507052005 | 46 | 65 | 2.0 | 3.0 | 0.00 | 0.00 | 0.00 | 93 | 1011.3 |
| 20260507051004 | 46 | 5 | 1.0 | 3.0 | 0.00 | 0.00 | 0.00 | 93 | 1011.4 |
| 20260507050005 | 46 | 6 | 1.0 | 3.0 | 0.00 | 0.00 | 0.00 | 94 | 1011.4 |
| 20260507045004 | 46 | 43 | 1.0 | 3.0 | 0.00 | 0.00 | 0.00 | 94 | 1011.4 |
| 20260507044005 | 45 | 121 | 0.0 | 0.0 | 0.00 | 0.00 | 0.00 | 94 | 1011.6 |
| 20260507043005 | 44 | 128 | 0.0 | 0.0 | 0.00 | 0.00 | 0.00 | 94 | 1011.7 |
| 20260507042005 | 44 | 136 | 0.0 | 0.0 | 0.00 | 0.00 | 0.00 | 93 | 1011.9 |
| 20260507041005 | 44 | 136 | 0.0 | 0.0 | 0.00 | 0.00 | 0.00 | 92 | 1011.9 |
| 20260507040005 | 45 | 123 | 0.0 | 0.0 | 0.00 | 0.00 | 0.00 | 92 | 1011.8 |
| 20260507035004 | 46 | 55 | 0.0 | 0.0 | 0.00 | 0.00 | 0.00 | 92 | 1011.8 |
| 20260507034005 | 46 | 55 | 0.0 | 0.0 | 0.00 | 0.00 | 0.00 | 91 | 1011.7 |
| 20260507032004 | 46 | 34 | 0.0 | 3.0 | 0.00 | 0.00 | 0.00 | 90 | 1011.8 |
| 20260507031004 | 46 | 55 | 0.0 | 0.0 | 0.00 | 0.00 | 0.00 | 91 | 1011.9 |
| 20260507030004 | 46 | 55 | 0.0 | 3.0 | 0.00 | 0.00 | 0.00 | 90 | 1011.9 |
| 20260507025004 | 46 | 186 | 0.0 | 2.0 | 0.00 | 0.00 | 0.00 | 90 | 1012.0 |
| 20260507023004 | 46 | 186 | 0.0 | 2.0 | 0.00 | 0.00 | 0.00 | 90 | 1011.9 |
| 20260507022005 | 46 | 186 | 0.0 | 2.0 | 0.00 | 0.00 | 0.00 | 90 | 1011.9 |
| 20260507020004 | 46 | 223 | 0.0 | 2.0 | 0.00 | 0.00 | 0.00 | 91 | 1012.0 |
| 20260507015005 | 46 | 223 | 0.0 | 0.0 | 0.00 | 0.00 | 0.00 | 91 | 1011.9 |
| 20260507014005 | 46 | 223 | 0.0 | 1.0 | 0.00 | 0.00 | 0.00 | 90 | 1012.0 |
| 20260507013004 | 46 | 223 | 0.0 | 1.0 | 0.00 | 0.00 | 0.00 | 90 | 1012.0 |
| 20260507012005 | 46 | 223 | 0.0 | 0.0 | 0.00 | 0.00 | 0.00 | 90 | 1012.1 |
| 20260507011004 | 46 | 223 | 0.0 | 0.0 | 0.00 | 0.00 | 0.00 | 90 | 1012.2 |
| 20260507004005 | 46 | 244 | 0.0 | 0.0 | 0.00 | 0.00 | 0.00 | 89 | 1012.2 |
| 20260507003004 | 46 | 244 | 0.0 | 0.0 | 0.00 | 0.00 | 0.00 | 88 | 1012.2 |
| 20260507002005 | 47 | 244 | 2.0 | 3.0 | 0.00 | 0.00 | 0.00 | 87 | 1012.1 |
| 20260507001004 | 48 | 248 | 0.0 | 0.0 | 0.00 | 0.00 | 0.00 | 87 | 1012.0 |
| 20260506235004 | 49 | 248 | 0.0 | 3.0 | 0.00 | 0.00 | 0.00 | 84 | 1012.0 |
| 20260506234004 | 50 | 5 | 0.0 | 1.0 | 0.00 | 0.00 | 0.00 | 82 | 1012.0 |
| 20260506233004 | 51 | 5 | 1.0 | 3.0 | 0.00 | 0.00 | 0.00 | 82 | 1012.0 |
| 20260506231005 | 51 | 61 | 2.0 | 3.0 | 0.00 | 0.00 | 0.00 | 82 | 1012.0 |
| 20260506230004 | 51 | 68 | 1.0 | 3.0 | 0.00 | 0.00 | 0.00 | 82 | 1012.1 |
| 20260506224005 | 51 | 78 | 1.0 | 6.0 | 0.00 | 0.00 | 0.00 | 82 | 1012.1 |
| 20260506223005 | 51 | 62 | 1.0 | 3.0 | 0.00 | 0.00 | 0.00 | 82 | 1012.2 |
| 20260506222004 | 51 | 68 | 2.0 | 3.0 | 0.00 | 0.00 | 0.00 | 82 | 1012.3 |
| 20260506221004 | 52 | 65 | 2.0 | 3.0 | 0.00 | 0.00 | 0.00 | 81 | 1012.4 |
| 20260506215006 | 52 | 63 | 1.0 | 3.0 | 0.00 | 0.00 | 0.00 | 80 | 1012.5 |
| 20260506214004 | 52 | 65 | 2.0 | 3.0 | 0.00 | 0.00 | 0.00 | 80 | 1012.5 |
| 20260506213005 | 52 | 73 | 2.0 | 3.0 | 0.00 | 0.00 | 0.00 | 80 | 1012.4 |
| 20260506212004 | 52 | 77 | 2.0 | 7.0 | 0.00 | 0.00 | 0.00 | 80 | 1012.3 |
| 20260506211004 | 53 | 66 | 2.0 | 9.0 | 0.00 | 0.00 | 0.00 | 79 | 1012.4 |
| 20260506204005 | 53 | 64 | 6.0 | 10.0 | 0.00 | 0.00 | 0.00 | 77 | 1012.1 |
| 20260506203004 | 54 | 61 | 4.0 | 9.0 | 0.00 | 0.00 | 0.00 | 76 | 1012.1 |
| 20260506202004 | 54 | 76 | 2.0 | 8.0 | 0.00 | 0.00 | 0.00 | 76 | 1012.1 |
| 20260506201005 | 54 | 52 | 5.0 | 9.0 | 0.00 | 0.00 | 0.00 | 76 | 1012.0 |
| 20260506200005 | 54 | 57 | 3.0 | 9.0 | 0.00 | 0.00 | 0.00 | 75 | 1011.9 |
| 20260506195005 | 55 | 46 | 5.0 | 10.0 | 0.00 | 0.00 | 0.00 | 75 | 1011.8 |
| 20260506194005 | 55 | 33 | 5.0 | 12.0 | 0.00 | 0.00 | 0.00 | 74 | 1011.8 |
| 20260506193005 | 55 | 21 | 5.0 | 10.0 | 0.00 | 0.00 | 0.00 | 74 | 1011.7 |
| 20260506192005 | 56 | 34 | 6.0 | 12.0 | 0.00 | 0.00 | 0.00 | 73 | 1011.7 |
| 20260506191005 | 57 | 12 | 5.0 | 12.0 | 0.00 | 0.00 | 0.00 | 71 | 1011.6 |
| 20260506185004 | 57 | 221 | 2.0 | 7.0 | 0.00 | 0.00 | 0.00 | 67 | 1011.6 |
| 20260506184004 | 57 | 207 | 5.0 | 8.0 | 0.00 | 0.00 | 0.00 | 67 | 1011.5 |
| 20260506183005 | 57 | 201 | 5.0 | 12.0 | 0.00 | 0.00 | 0.00 | 67 | 1011.4 |
| 20260506182005 | 58 | 185 | 7.0 | 12.0 | 0.00 | 0.00 | 0.00 | 67 | 1011.3 |
| 20260506181004 | 58 | 193 | 6.0 | 13.0 | 0.00 | 0.00 | 0.00 | 67 | 1011.4 |
| 20260506180005 | 58 | 187 | 8.0 | 13.0 | 0.00 | 0.00 | 0.00 | 65 | 1011.4 |
| 20260506175004 | 59 | 194 | 11.0 | 16.0 | 0.00 | 0.00 | 0.00 | 64 | 1011.4 |
| 20260506172005 | 60 | 222 | 3.0 | 9.0 | 0.00 | 0.00 | 0.00 | 61 | 1011.3 |
| 20260506171004 | 60 | 240 | 4.0 | 10.0 | 0.00 | 0.00 | 0.00 | 60 | 1011.4 |
| 20260506170004 | 60 | 197 | 6.0 | 13.0 | 0.00 | 0.00 | 0.00 | 61 | 1011.4 |
| 20260506165005 | 60 | 209 | 6.0 | 12.0 | 0.00 | 0.00 | 0.00 | 59 | 1011.4 |
| 20260506163004 | 63 | 261 | 5.0 | 10.0 | 0.00 | 0.00 | 0.00 | 57 | 1011.3 |
| 20260506162005 | 62 | 217 | 0.0 | 5.0 | 0.00 | 0.00 | 0.00 | 54 | 1011.3 |
| 20260506161004 | 61 | 190 | 2.0 | 7.0 | 0.00 | 0.00 | 0.00 | 57 | 1011.4 |
| 20260506160005 | 60 | 210 | 3.0 | 9.0 | 0.00 | 0.00 | 0.00 | 56 | 1011.5 |
| 20260506155004 | 61 | 222 | 3.0 | 8.0 | 0.00 | 0.00 | 0.00 | 55 | 1011.5 |
| 20260506154004 | 61 | 214 | 9.0 | 13.0 | 0.00 | 0.00 | 0.00 | 54 | 1011.6 |
| 20260506152004 | 62 | 241 | 6.0 | 15.0 | 0.00 | 0.00 | 0.00 | 53 | 1011.7 |
| 20260506151005 | 62 | 243 | 6.0 | 13.0 | 0.00 | 0.00 | 0.00 | 51 | 1011.8 |
| 20260506150005 | 62 | 252 | 5.0 | 9.0 | 0.00 | 0.00 | 0.00 | 51 | 1011.9 |
| 20260506145004 | 62 | 242 | 5.0 | 10.0 | 0.00 | 0.00 | 0.00 | 52 | 1012.0 |
| 20260506144004 | 62 | 31 | 3.0 | 9.0 | 0.00 | 0.00 | 0.00 | 50 | 1012.2 |
| 20260506143005 | 61 | 280 | 2.0 | 12.0 | 0.00 | 0.00 | 0.00 | 49 | 1012.4 |
| 20260506142005 | 62 | 253 | 4.0 | 9.0 | 0.00 | 0.00 | 0.00 | 49 | 1012.5 |
| 20260506141004 | 61 | 232 | 1.0 | 8.0 | 0.00 | 0.00 | 0.00 | 48 | 1012.7 |
| 20260506140005 | 61 | 86 | 3.0 | 7.0 | 0.00 | 0.00 | 0.00 | 54 | 1012.7 |
| 20260506135005 | 60 | 287 | 3.0 | 10.0 | 0.00 | 0.00 | 0.00 | 52 | 1012.8 |
| 20260506134005 | 61 | 234 | 5.0 | 12.0 | 0.00 | 0.00 | 0.00 | 52 | 1013.0 |
| 20260506133005 | 60 | 195 | 0.0 | 6.0 | 0.00 | 0.00 | 0.00 | 58 | 1013.1 |
| 20260506132005 | 58 | 8 | 3.0 | 8.0 | 0.00 | 0.00 | 0.00 | 58 | 1013.2 |
| 20260506131005 | 58 | 3 | 2.0 | 5.0 | 0.00 | 0.00 | 0.00 | 59 | 1013.3 |
| 20260506130005 | 57 | 92 | 1.0 | 3.0 | 0.00 | 0.00 | 0.00 | 60 | 1013.5 |
| 20260506125004 | 57 | 112 | 1.0 | 3.0 | 0.00 | 0.01 | 0.00 | 60 | 1013.7 |
| 20260506124004 | 57 | 232 | 1.0 | 3.0 | 0.00 | 0.01 | 0.00 | 61 | 1013.8 |
| 20260506123005 | 56 | 204 | 0.0 | 3.0 | 0.00 | 0.01 | 0.00 | 62 | 1014.0 |
| 20260506122005 | 57 | 189 | 2.0 | 7.0 | 0.00 | 0.01 | 0.00 | 64 | 1014.1 |
| 20260506121005 | 56 | 157 | 2.0 | 5.0 | 0.00 | 0.01 | 0.00 | 65 | 1014.1 |
| 20260506120005 | 56 | 224 | 3.0 | 7.0 | 0.00 | 0.01 | 0.00 | 64 | 1014.3 |
| 20260506114005 | 56 | 170 | 5.0 | 8.0 | 0.00 | 0.01 | 0.00 | 62 | 1014.6 |
| 20260506113004 | 56 | 133 | 2.0 | 5.0 | 0.00 | 0.01 | 0.00 | 65 | 1014.8 |
| 20260506112005 | 55 | 45 | 3.0 | 7.0 | 0.00 | 0.01 | 0.00 | 64 | 1014.7 |
| 20260506111004 | 56 | 348 | 3.0 | 8.0 | 0.00 | 0.01 | 0.00 | 64 | 1014.9 |
| 20260506110005 | 55 | 37 | 2.0 | 10.0 | 0.00 | 0.01 | 0.00 | 67 | 1015.0 |
| 20260506105005 | 56 | 253 | 3.0 | 9.0 | 0.00 | 0.02 | 0.00 | 67 | 1015.0 |
| 20260506102004 | 54 | 158 | 2.0 | 5.0 | 0.00 | 0.02 | 0.00 | 67 | 1015.1 |
| 20260506101005 | 54 | 169 | 2.0 | 5.0 | 0.00 | 0.02 | 0.00 | 68 | 1015.2 |
| 20260506100005 | 53 | 174 | 1.0 | 6.0 | 0.00 | 0.02 | 0.00 | 70 | 1015.2 |
| 20260506095004 | 52 | 226 | 1.0 | 6.0 | 0.00 | 0.02 | 0.00 | 71 | 1015.2 |
| 20260506094005 | 52 | 183 | 2.0 | 6.0 | 0.00 | 0.02 | 0.00 | 73 | 1015.2 |
| 20260506093004 | 52 | 190 | 2.0 | 3.0 | 0.00 | 0.02 | 0.00 | 73 | 1015.1 |
| 20260506092004 | 51 | 238 | 1.0 | 3.0 | 0.00 | 0.02 | 0.00 | 74 | 1015.2 |
| 20260506091004 | 51 | 231 | 1.0 | 3.0 | 0.00 | 0.02 | 0.00 | 74 | 1015.3 |
| 20260506090004 | 51 | 188 | 2.0 | 5.0 | 0.00 | 0.02 | 0.00 | 76 | 1015.2 |
| 20260506085005 | 51 | 163 | 2.0 | 3.0 | 0.00 | 0.02 | 0.00 | 76 | 1015.2 |
| 20260506084005 | 51 | 259 | 0.0 | 3.0 | 0.00 | 0.02 | 0.00 | 75 | 1015.3 |
| 20260506083004 | 51 | 276 | 1.0 | 3.0 | 0.00 | 0.02 | 0.00 | 76 | 1015.3 |
| 20260506082005 | 51 | 198 | 1.0 | 3.0 | 0.00 | 0.02 | 0.00 | 77 | 1015.4 |